Time;durP1;ratioP1;P1;durP2;ratioP2;P2;SDS_P1;SDS_P2;PMS_P1;PMS_P2;Temp;Humidity;BMP_temperature;BMP_pressure;BME280_temperature;BME280_humidity;BME280_pressure;Samples;Min_cycle;Max_cycle;Signal;HPM_P1;HPM_P2
2022/04/29 00:04:13;;;;;;;4.53;2.38;;;12.80;76.10;;;;;;10448798;28;20033;-58
2022/04/29 00:09:14;;;;;;;5.10;3.38;;;12.80;76.20;;;;;;10448769;28;20048;-59
2022/04/29 00:14:15;;;;;;;3.75;2.65;;;12.80;76.20;;;;;;10448881;28;20637;-59
2022/04/29 00:19:16;;;;;;;5.70;3.40;;;12.70;76.20;;;;;;10448556;28;20031;-58
2022/04/29 00:24:17;;;;;;;9.40;2.67;;;12.70;76.80;;;;;;10447999;28;20033;-57
2022/04/29 00:29:17;;;;;;;5.72;2.53;;;12.70;76.30;;;;;;10448565;28;20032;-59
2022/04/29 00:34:18;;;;;;;6.97;2.58;;;12.70;76.40;;;;;;10449101;28;20090;-60
2022/04/29 00:39:19;;;;;;;7.82;2.65;;;12.60;76.30;;;;;;10449227;28;20535;-59
2022/04/29 00:44:20;;;;;;;5.18;2.75;;;12.60;76.40;;;;;;10444686;28;20129;-58
2022/04/29 00:49:20;;;;;;;7.60;2.53;;;12.60;76.40;;;;;;10442750;28;20044;-60
2022/04/29 00:54:34;;;;;;;6.82;2.90;;;12.60;76.50;;;;;;10447323;28;20021;-57
2022/04/29 01:00:03;;;;;;;3.65;2.28;;;12.50;76.50;;;;;;10446661;28;20025;-57
2022/04/29 01:05:06;;;;;;;8.90;2.85;;;12.50;76.60;;;;;;10441691;28;20404;-58
2022/04/29 01:10:10;;;;;;;4.82;2.75;;;12.50;76.50;;;;;;10446329;28;20044;-56
2022/04/29 01:15:14;;;;;;;4.60;2.80;;;12.40;76.40;;;;;;10446021;28;20048;-57
2022/04/29 01:20:24;;;;;;;6.55;2.70;;;12.40;76.50;;;;;;10446110;28;20178;-57
2022/04/29 01:25:25;;;;;;;3.53;2.63;;;12.40;76.50;;;;;;10433533;28;20128;-59
2022/04/29 01:30:26;;;;;;;6.78;2.58;;;12.30;76.50;;;;;;10445836;28;20124;-57
2022/04/29 01:35:26;;;;;;;4.35;2.30;;;12.30;76.50;;;;;;10442519;28;20151;-59
2022/04/29 01:40:27;;;;;;;6.35;2.92;;;12.30;76.60;;;;;;10445431;28;20182;-59
2022/04/29 01:45:29;;;;;;;4.13;2.30;;;12.30;76.60;;;;;;10445140;28;20501;-58
2022/04/29 01:50:29;;;;;;;5.45;2.75;;;12.20;76.60;;;;;;10445100;28;20032;-55
2022/04/29 01:55:30;;;;;;;4.88;3.25;;;12.20;76.60;;;;;;10445097;28;20047;-59
2022/04/29 02:00:31;;;;;;;8.88;3.63;;;12.20;76.60;;;;;;10444712;28;20257;-57
2022/04/29 02:05:32;;;;;;;7.07;2.65;;;12.20;76.70;;;;;;10444329;28;20037;-56
2022/04/29 02:10:33;;;;;;;5.18;2.80;;;12.10;76.70;;;;;;10445956;28;20148;-58
2022/04/29 02:15:34;;;;;;;6.25;2.90;;;12.10;76.70;;;;;;10451862;28;20043;-57
2022/04/29 02:20:34;;;;;;;5.70;3.30;;;12.10;76.70;;;;;;10451611;28;20033;-58
2022/04/29 02:25:35;;;;;;;5.13;2.83;;;12.10;76.70;;;;;;10451241;28;20048;-58
2022/04/29 02:30:36;;;;;;;6.93;3.28;;;12.10;76.70;;;;;;10451524;28;20041;-59
2022/04/29 02:35:36;;;;;;;4.20;2.67;;;12.00;76.70;;;;;;10451164;28;20102;-59
2022/04/29 02:40:37;;;;;;;4.43;2.88;;;12.00;76.80;;;;;;10450633;28;20514;-57
2022/04/29 02:45:38;;;;;;;5.40;3.08;;;12.00;76.90;;;;;;10450790;28;20036;-58
2022/04/29 02:50:39;;;;;;;4.43;2.65;;;12.00;76.80;;;;;;10450957;28;20111;-59
2022/04/29 02:55:40;;;;;;;3.22;2.70;;;12.00;76.80;;;;;;10450744;28;20041;-58
2022/04/29 03:00:41;;;;;;;5.35;3.55;;;12.00;77.20;;;;;;10450356;28;20037;-57
2022/04/29 03:05:41;;;;;;;7.97;3.53;;;11.90;76.80;;;;;;10450005;28;20044;-60
2022/04/29 03:10:42;;;;;;;5.05;2.67;;;11.90;76.90;;;;;;10449720;28;20161;-59
2022/04/29 03:15:43;;;;;;;6.55;3.70;;;11.90;76.90;;;;;;10449705;28;20048;-57
2022/04/29 03:20:44;;;;;;;4.07;2.88;;;11.90;76.90;;;;;;10448872;28;20302;-56
2022/04/29 03:25:45;;;;;;;9.32;4.00;;;11.90;76.90;;;;;;10449490;28;20098;-59
2022/04/29 03:30:46;;;;;;;5.72;3.00;;;11.90;77.00;;;;;;10449312;28;20485;-57
2022/04/29 03:35:50;;;;;;;6.70;3.15;;;11.80;77.00;;;;;;10449327;28;20121;-59
2022/04/29 03:40:52;;;;;;;5.45;2.80;;;11.80;77.00;;;;;;10449293;28;20056;-59
2022/04/29 03:45:52;;;;;;;4.75;3.03;;;11.80;77.00;;;;;;10448834;28;20439;-58
2022/04/29 03:50:53;;;;;;;5.32;2.95;;;11.80;77.00;;;;;;10448530;28;20208;-58
2022/04/29 03:55:54;;;;;;;5.18;3.08;;;11.70;77.00;;;;;;10446825;28;20094;-59
2022/04/29 04:00:55;;;;;;;4.20;2.83;;;11.70;77.00;;;;;;10451484;28;20112;-58
2022/04/29 04:11:15;;;;;;;4.80;2.70;;;11.70;77.10;;;;;;10445182;28;20082;-58
2022/04/29 04:16:16;;;;;;;8.50;3.13;;;11.70;77.10;;;;;;10444257;28;20091;-59
2022/04/29 04:21:16;;;;;;;6.00;2.97;;;11.70;77.20;;;;;;10447740;28;20017;-58
2022/04/29 04:26:17;;;;;;;5.40;3.00;;;11.70;77.20;;;;;;10445988;28;20523;-59
2022/04/29 04:31:21;;;;;;;6.20;3.50;;;11.60;77.10;;;;;;10446944;28;20352;-59
2022/04/29 04:36:22;;;;;;;5.85;2.78;;;11.70;77.20;;;;;;10429528;28;20410;-58
2022/04/29 04:41:22;;;;;;;4.40;2.63;;;11.60;77.10;;;;;;10446776;28;20037;-59
2022/04/29 04:46:25;;;;;;;3.63;2.83;;;11.60;77.10;;;;;;10446810;28;20064;-58
2022/04/29 04:51:25;;;;;;;7.47;2.63;;;11.60;77.20;;;;;;10446223;28;20025;-57
2022/04/29 04:56:26;;;;;;;5.13;2.70;;;11.60;77.10;;;;;;10446076;28;20021;-57
2022/04/29 05:01:27;;;;;;;6.60;3.53;;;11.70;77.20;;;;;;10450613;28;20376;-58
2022/04/29 05:06:28;;;;;;;4.47;2.95;;;11.70;77.20;;;;;;10445115;28;20057;-58
2022/04/29 05:11:29;;;;;;;7.70;3.00;;;11.60;77.10;;;;;;10445625;28;20418;-57
2022/04/29 05:16:30;;;;;;;5.82;3.17;;;11.60;77.10;;;;;;10445137;28;20056;-59
2022/04/29 05:21:31;;;;;;;4.18;2.95;;;11.70;77.20;;;;;;10445035;28;20053;-58
2022/04/29 05:26:31;;;;;;;5.32;2.47;;;11.60;77.10;;;;;;10445328;28;20144;-60
2022/04/29 05:31:32;;;;;;;4.93;2.45;;;11.70;77.10;;;;;;10444695;28;20120;-57
2022/04/29 05:36:35;;;;;;;4.03;2.88;;;11.70;77.10;;;;;;10444601;28;20028;-58
2022/04/29 05:46:56;;;;;;;4.88;3.08;;;11.70;77.20;;;;;;10444143;28;20124;-59
2022/04/29 05:52:01;;;;;;;4.40;2.85;;;11.60;77.10;;;;;;10444184;28;20118;-60
2022/04/29 05:57:02;;;;;;;4.25;2.88;;;11.60;77.20;;;;;;10443881;28;20060;-58
2022/04/29 06:02:03;;;;;;;6.43;2.45;;;11.70;77.20;;;;;;10444123;28;20123;-56
2022/04/29 06:07:04;;;;;;;4.43;2.55;;;11.70;77.20;;;;;;10443437;28;20079;-56
2022/04/29 06:12:05;;;;;;;4.25;2.60;;;11.70;77.20;;;;;;10443816;28;20039;-58
2022/04/29 06:17:06;;;;;;;5.00;2.70;;;11.70;77.20;;;;;;10443378;28;20475;-58
2022/04/29 06:22:07;;;;;;;6.22;2.97;;;11.70;77.20;;;;;;10443352;28;20041;-59
2022/04/29 06:27:07;;;;;;;5.03;2.70;;;11.70;77.20;;;;;;10443458;28;20123;-57
2022/04/29 06:32:08;;;;;;;3.28;2.25;;;11.70;77.20;;;;;;10443186;28;20074;-56
2022/04/29 06:37:10;;;;;;;4.50;2.42;;;11.70;77.20;;;;;;10425775;28;20376;-60
2022/04/29 06:42:11;;;;;;;5.15;2.33;;;11.80;77.30;;;;;;10442858;28;20041;-59
2022/04/29 06:47:12;;;;;;;4.88;2.22;;;11.80;77.40;;;;;;10443191;28;20025;-60
2022/04/29 06:52:12;;;;;;;5.43;2.63;;;11.80;77.30;;;;;;10442753;28;20560;-58
2022/04/29 06:57:13;;;;;;;4.13;2.75;;;11.80;77.30;;;;;;10446101;28;20037;-59
2022/04/29 07:02:16;;;;;;;5.25;2.28;;;11.80;77.30;;;;;;10450074;28;20368;-61
2022/04/29 07:07:16;;;;;;;3.80;2.20;;;11.80;77.30;;;;;;10442867;28;20503;-58
2022/04/29 07:12:17;;;;;;;2.72;2.25;;;11.90;77.40;;;;;;10449882;28;20184;-57
2022/04/29 07:17:20;;;;;;;4.03;2.28;;;11.90;77.50;;;;;;10449708;28;20068;-57
2022/04/29 07:22:21;;;;;;;3.92;2.28;;;11.90;77.50;;;;;;10447617;28;20052;-59
2022/04/29 07:27:21;;;;;;;4.68;2.15;;;11.90;77.40;;;;;;10447607;28;20036;-58
2022/04/29 07:32:24;;;;;;;4.63;2.35;;;11.90;77.40;;;;;;10447158;28;20029;-56
2022/04/29 07:42:44;;;;;;;4.03;2.00;;;11.90;77.50;;;;;;10446677;28;20033;-62
2022/04/29 07:47:45;;;;;;;2.55;1.90;;;11.90;77.40;;;;;;10446605;28;20025;-58
2022/04/29 07:52:46;;;;;;;4.05;1.98;;;11.90;77.50;;;;;;10448207;28;20032;-55
2022/04/29 07:57:46;;;;;;;3.20;2.13;;;11.90;77.50;;;;;;10447461;28;20132;-58
2022/04/29 08:02:48;;;;;;;5.45;2.25;;;12.00;77.50;;;;;;10446329;28;20121;-56
2022/04/29 08:07:48;;;;;;;5.28;2.20;;;12.00;77.40;;;;;;10442552;28;20173;-57
2022/04/29 08:12:50;;;;;;;4.63;2.20;;;12.10;77.40;;;;;;10431480;28;20029;-58
2022/04/29 08:17:51;;;;;;;4.38;2.20;;;12.20;77.50;;;;;;10439605;28;20098;-59
2022/04/29 08:22:52;;;;;;;3.75;2.03;;;12.30;77.30;;;;;;10432350;28;20082;-55
2022/04/29 08:27:53;;;;;;;7.00;2.30;;;12.40;77.30;;;;;;10445258;28;20048;-56
2022/04/29 08:32:54;;;;;;;3.65;2.13;;;12.40;77.00;;;;;;10445555;28;20036;-60
2022/04/29 08:37:56;;;;;;;3.13;1.90;;;12.50;77.30;;;;;;10442032;28;20139;-59
2022/04/29 08:42:58;;;;;;;2.50;1.95;;;12.50;77.50;;;;;;10445369;28;20048;-57
2022/04/29 08:47:59;;;;;;;2.90;2.25;;;12.60;77.60;;;;;;10445530;28;20375;-50
2022/04/29 08:53:00;;;;;;;3.55;2.35;;;12.60;77.50;;;;;;10441448;28;20063;-54
2022/04/29 09:03:22;;;;;;;3.83;2.25;;;12.70;77.70;;;;;;10438243;28;20037;-51
2022/04/29 09:08:23;;;;;;;3.33;2.17;;;12.80;77.90;;;;;;10443136;28;20045;-62
2022/04/29 09:13:34;;;;;;;2.75;2.00;;;12.80;78.00;;;;;;10444586;28;20373;-58
2022/04/29 09:18:42;;;;;;;3.00;2.08;;;12.90;77.90;;;;;;10444286;28;20611;-56
2022/04/29 09:23:54;;;;;;;3.92;2.15;;;12.90;78.00;;;;;;10444531;28;20059;-62
2022/04/29 09:29:15;;;;;;;4.03;2.55;;;13.00;78.10;;;;;;10443854;28;20347;-60
2022/04/29 09:34:16;;;;;;;3.78;2.10;;;13.00;78.80;;;;;;10441123;28;20106;-58
2022/04/29 09:39:32;;;;;;;3.40;2.15;;;13.00;78.50;;;;;;10443929;28;20418;-61
2022/04/29 09:44:34;;;;;;;4.18;2.08;;;13.00;78.50;;;;;;10435300;28;20087;-58
2022/04/29 09:49:36;;;;;;;4.07;2.10;;;13.00;78.70;;;;;;10443665;28;20036;-57
2022/04/29 09:54:37;;;;;;;5.13;2.00;;;13.00;78.60;;;;;;10444415;28;20041;-60
2022/04/29 09:59:39;;;;;;;3.90;1.88;;;13.00;78.60;;;;;;10442983;28;20463;-58
2022/04/29 10:04:43;;;;;;;2.70;1.92;;;13.00;78.60;;;;;;10443104;28;20029;-61
2022/04/29 10:09:48;;;;;;;4.32;1.95;;;13.00;78.60;;;;;;10442663;28;20077;-64
2022/04/29 10:14:53;;;;;;;2.67;2.30;;;13.00;78.70;;;;;;10448566;28;20495;-61
2022/04/29 10:25:25;;;;;;;6.95;2.10;;;13.00;78.80;;;;;;10441036;28;20360;-59
2022/04/29 10:30:32;;;;;;;4.38;2.65;;;13.10;79.00;;;;;;10443087;28;20045;-56
2022/04/29 10:35:53;;;;;;;2.53;2.10;;;13.10;79.10;;;;;;10450447;28;20059;-52
2022/04/29 10:41:15;;;;;;;2.58;1.98;;;13.10;79.20;;;;;;10447134;28;20275;-58
2022/04/29 10:46:17;;;;;;;3.28;2.40;;;13.20;79.40;;;;;;10443326;28;20032;-56
2022/04/29 10:51:19;;;;;;;3.40;2.20;;;13.20;79.10;;;;;;10449972;28;20092;-61
2022/04/29 10:56:31;;;;;;;2.80;2.10;;;13.20;79.00;;;;;;10450013;28;20475;-59
2022/04/29 11:01:36;;;;;;;2.85;2.05;;;13.30;79.00;;;;;;10449932;28;20108;-57
2022/04/29 11:06:40;;;;;;;5.25;2.22;;;13.30;78.90;;;;;;10449570;28;20385;-58
2022/04/29 11:11:44;;;;;;;4.68;2.78;;;13.30;78.90;;;;;;10454710;28;20457;-54
2022/04/29 11:16:49;;;;;;;6.03;2.30;;;13.40;79.60;;;;;;10447912;28;20029;-56
2022/04/29 11:27:25;;;;;;;3.67;2.40;;;13.50;79.40;;;;;;10448596;28;20025;-56
2022/04/29 11:32:26;;;;;;;3.65;2.25;;;13.50;79.40;;;;;;10448492;28;20561;-60
2022/04/29 11:37:33;;;;;;;4.30;2.50;;;13.60;79.20;;;;;;10447704;28;20025;-59
2022/04/29 11:42:34;;;;;;;5.15;2.50;;;13.60;79.40;;;;;;10447427;28;20055;-58
2022/04/29 11:47:39;;;;;;;4.22;2.40;;;13.60;79.50;;;;;;10442279;28;20385;-59
2022/04/29 11:52:42;;;;;;;6.90;2.72;;;13.60;79.60;;;;;;10439572;28;20510;-60
2022/04/29 11:57:54;;;;;;;7.53;2.53;;;13.60;79.70;;;;;;10447143;28;20119;-61
2022/04/29 12:02:57;;;;;;;8.93;2.58;;;13.60;79.80;;;;;;10447895;28;20040;-60
2022/04/29 12:08:02;;;;;;;7.03;2.58;;;13.60;79.80;;;;;;10439357;28;20065;-59
2022/04/29 12:13:05;;;;;;;5.13;2.88;;;13.90;80.20;;;;;;10445471;28;20048;-57
2022/04/29 12:18:14;;;;;;;4.45;2.67;;;13.60;80.00;;;;;;10440090;28;20048;-60
2022/04/29 12:23:22;;;;;;;9.10;3.15;;;13.70;80.00;;;;;;10445987;28;20045;-63
2022/04/29 12:28:26;;;;;;;6.40;2.80;;;13.50;78.50;;;;;;10439041;28;20166;-58
2022/04/29 12:38:46;;;;;;;5.20;3.88;;;12.60;77.80;;;;;;10443967;28;20063;-56
2022/04/29 12:43:47;;;;;;;4.85;3.10;;;12.50;77.70;;;;;;10445338;28;20503;-56
2022/04/29 12:48:48;;;;;;;7.22;4.25;;;12.20;77.50;;;;;;10446120;28;20040;-55
2022/04/29 12:53:50;;;;;;;7.78;3.58;;;12.10;77.40;;;;;;10443523;28;20024;-58
2022/04/29 12:58:51;;;;;;;7.18;3.80;;;11.90;77.80;;;;;;10444475;28;20047;-57
2022/04/29 13:03:54;;;;;;;7.63;3.70;;;11.70;77.90;;;;;;10452038;28;20144;-63
2022/04/29 13:08:57;;;;;;;7.22;4.03;;;11.80;77.90;;;;;;10435505;28;20081;-62
2022/04/29 13:13:58;;;;;;;8.73;3.90;;;11.90;77.70;;;;;;10439491;28;20021;-63
2022/04/29 13:18:58;;;;;;;7.15;4.22;;;12.00;77.40;;;;;;10443298;28;20090;-61
2022/04/29 13:24:01;;;;;;;8.55;4.10;;;12.00;77.20;;;;;;10443122;28;20063;-55
2022/04/29 13:29:03;;;;;;;7.57;3.85;;;12.00;77.20;;;;;;10444455;28;20219;-55
2022/04/29 13:34:03;;;;;;;5.75;4.00;;;12.00;76.90;;;;;;10444289;28;20120;-54
2022/04/29 13:39:04;;;;;;;7.40;4.38;;;11.90;76.70;;;;;;10443063;28;20035;-54
2022/04/29 13:44:05;;;;;;;10.38;4.40;;;11.80;77.20;;;;;;10442658;28;20076;-57
2022/04/29 13:49:05;;;;;;;9.43;4.18;;;11.80;76.70;;;;;;10443969;28;20124;-56
2022/04/29 13:54:07;;;;;;;7.72;4.72;;;11.90;76.40;;;;;;10427594;28;20021;-57
2022/04/29 13:59:08;;;;;;;9.80;4.60;;;11.90;75.90;;;;;;10444598;28;20273;-60
2022/04/29 14:04:09;;;;;;;5.18;3.80;;;11.70;75.80;;;;;;10445125;28;20049;-56
2022/04/29 14:09:09;;;;;;;5.35;4.05;;;11.80;75.60;;;;;;10456660;28;20051;-60
2022/04/29 14:14:10;;;;;;;8.07;3.90;;;11.80;75.30;;;;;;10456748;28;20039;-52
2022/04/29 14:19:11;;;;;;;7.10;3.42;;;11.70;75.20;;;;;;10455597;28;20041;-54
2022/04/29 14:24:12;;;;;;;7.18;3.63;;;11.80;75.20;;;;;;10455524;28;20128;-60
2022/04/29 14:29:14;;;;;;;5.70;3.42;;;11.80;74.80;;;;;;10440340;28;20457;-52
2022/04/29 14:34:14;;;;;;;7.97;3.53;;;11.80;75.00;;;;;;10455426;28;20423;-52
2022/04/29 14:39:15;;;;;;;7.20;3.25;;;11.80;74.70;;;;;;10452517;28;20035;-56
2022/04/29 14:44:16;;;;;;;9.07;3.30;;;11.80;74.60;;;;;;10455040;28;20223;-55
2022/04/29 14:49:17;;;;;;;5.55;3.40;;;11.80;74.50;;;;;;10452953;28;20503;-55
2022/04/29 14:54:18;;;;;;;6.03;3.47;;;11.90;74.50;;;;;;10449734;28;20116;-55
2022/04/29 14:59:18;;;;;;;10.43;3.10;;;12.20;74.60;;;;;;10447559;28;20452;-57
2022/04/29 15:04:19;;;;;;;5.05;2.88;;;12.50;74.50;;;;;;10451669;28;20090;-54
2022/04/29 15:20:00;;;;;;;4.25;2.63;;;13.40;73.70;;;;;;10427177;28;20115;-59
2022/04/29 15:25:01;;;;;;;4.85;2.55;;;13.60;73.60;;;;;;10422464;28;20041;-49
2022/04/29 15:30:04;;;;;;;4.38;2.83;;;13.60;73.70;;;;;;10443221;28;20034;-58
2022/04/29 15:35:05;;;;;;;7.05;2.63;;;13.80;74.10;;;;;;10449544;28;20025;-48
2022/04/29 15:40:06;;;;;;;3.75;2.45;;;13.90;74.50;;;;;;10449903;28;20470;-55
2022/04/29 15:45:09;;;;;;;5.43;2.80;;;14.00;74.80;;;;;;10450345;28;20136;-56
2022/04/29 15:50:10;;;;;;;4.40;2.75;;;14.00;74.90;;;;;;10449397;28;20624;-55
2022/04/29 15:55:11;;;;;;;3.30;2.50;;;14.00;75.20;;;;;;10448789;28;20033;-54
2022/04/29 16:00:12;;;;;;;5.85;3.20;;;14.00;75.50;;;;;;10435559;28;20020;-57
2022/04/29 16:05:13;;;;;;;5.38;2.40;;;14.00;75.80;;;;;;10448540;28;20037;-58
2022/04/29 16:10:13;;;;;;;3.83;2.65;;;14.00;76.10;;;;;;10448186;28;20029;-55
2022/04/29 16:15:14;;;;;;;6.25;2.78;;;14.00;76.70;;;;;;10447559;28;20025;-52
2022/04/29 16:20:34;;;;;;;3.13;2.63;;;14.00;77.40;;;;;;10436616;28;20180;-60
2022/04/29 16:25:37;;;;;;;6.85;3.10;;;13.90;77.10;;;;;;10444159;28;20037;-66
2022/04/29 16:30:42;;;;;;;5.07;2.80;;;13.90;77.20;;;;;;10446990;28;20131;-59
2022/04/29 16:35:44;;;;;;;7.53;3.15;;;13.90;78.00;;;;;;10448940;28;20095;-59
2022/04/29 16:40:45;;;;;;;4.15;2.53;;;13.90;78.00;;;;;;10450313;28;20021;-60
2022/04/29 16:45:46;;;;;;;3.63;2.60;;;13.90;78.10;;;;;;10447978;28;20052;-58
2022/04/29 16:50:47;;;;;;;4.72;2.35;;;13.90;78.70;;;;;;10448992;28;20040;-58
2022/04/29 16:55:48;;;;;;;5.78;2.75;;;13.80;79.00;;;;;;10431128;28;20039;-60
2022/04/29 17:00:52;;;;;;;6.78;3.10;;;13.80;79.30;;;;;;10453006;28;20021;-58
2022/04/29 17:05:53;;;;;;;3.63;2.45;;;13.80;79.60;;;;;;10440118;28;20416;-58
2022/04/29 17:10:58;;;;;;;3.40;2.78;;;13.70;79.70;;;;;;10436648;28;20052;-58
2022/04/29 17:16:00;;;;;;;6.80;2.92;;;13.70;79.80;;;;;;10444278;28;20104;-59
2022/04/29 17:21:01;;;;;;;8.45;2.80;;;13.70;79.90;;;;;;10443775;28;20487;-59
2022/04/29 17:26:04;;;;;;;7.60;3.05;;;13.70;80.00;;;;;;10444507;28;20029;-58
2022/04/29 17:31:05;;;;;;;7.60;3.05;;;13.70;80.00;;;;;;10447283;28;20124;-58
2022/04/29 17:36:06;;;;;;;8.40;3.22;;;13.70;80.00;;;;;;10433728;28;20426;-53
2022/04/29 17:46:26;;;;;;;4.57;2.72;;;13.60;79.90;;;;;;10437302;28;20045;-59
2022/04/29 17:51:27;;;;;;;3.78;2.72;;;13.60;79.90;;;;;;10433018;28;20371;-54
2022/04/29 17:56:28;;;;;;;5.13;3.10;;;13.60;79.80;;;;;;10438108;28;20043;-59
2022/04/29 18:01:31;;;;;;;4.88;3.00;;;13.50;79.90;;;;;;10434009;28;20524;-58
2022/04/29 18:06:31;;;;;;;4.35;2.42;;;13.50;79.90;;;;;;10436765;28;20048;-58
2022/04/29 18:11:33;;;;;;;4.50;2.85;;;13.50;79.90;;;;;;10438872;28;20106;-55
2022/04/29 18:16:33;;;;;;;5.15;2.55;;;13.50;80.00;;;;;;10455611;28;20043;-60
2022/04/29 18:21:35;;;;;;;4.07;2.63;;;13.40;79.90;;;;;;10424401;28;20124;-60
2022/04/29 18:26:36;;;;;;;4.70;2.47;;;13.40;80.00;;;;;;10439837;28;20063;-59
2022/04/29 18:31:36;;;;;;;5.25;3.03;;;13.30;79.90;;;;;;10433398;28;20025;-59
2022/04/29 18:36:37;;;;;;;6.63;2.90;;;13.30;80.00;;;;;;10425879;28;20557;-58
2022/04/29 18:41:38;;;;;;;3.75;2.33;;;13.30;80.00;;;;;;10434440;28;20037;-60
2022/04/29 18:46:39;;;;;;;5.50;3.03;;;13.30;80.00;;;;;;10423169;28;20036;-53
2022/04/29 18:51:40;;;;;;;2.35;2.10;;;13.20;79.90;;;;;;10420701;28;20037;-58
2022/04/29 18:56:41;;;;;;;3.65;2.33;;;13.20;79.80;;;;;;10435780;28;20132;-54
2022/04/29 19:01:45;;;;;;;5.75;1.85;;;13.20;79.90;;;;;;10436295;28;20053;-57
2022/04/29 19:06:46;;;;;;;5.10;1.95;;;13.10;79.70;;;;;;10443341;28;20040;-59
2022/04/29 19:11:47;;;;;;;4.50;2.10;;;13.10;79.70;;;;;;10444212;28;20036;-51
2022/04/29 19:16:48;;;;;;;3.53;2.13;;;13.10;79.70;;;;;;10447180;28;20037;-59
2022/04/29 19:21:48;;;;;;;2.20;1.90;;;13.10;79.70;;;;;;10446725;28;20082;-57
2022/04/29 19:26:49;;;;;;;4.22;2.38;;;13.00;79.70;;;;;;10434305;28;20036;-62
2022/04/29 19:31:51;;;;;;;2.38;1.88;;;13.00;79.70;;;;;;10441293;28;20075;-57
2022/04/29 19:36:52;;;;;;;3.22;1.63;;;13.00;79.70;;;;;;10459434;28;20286;-62
2022/04/29 19:41:53;;;;;;;3.97;2.00;;;13.00;79.70;;;;;;10425673;28;20040;-58
2022/04/29 19:46:54;;;;;;;2.17;1.67;;;13.00;79.90;;;;;;10421818;28;20042;-57
2022/04/29 19:51:55;;;;;;;3.97;1.85;;;13.00;79.70;;;;;;10419019;28;20052;-56
2022/04/29 20:07:36;;;;;;;3.00;1.80;;;12.90;79.70;;;;;;10421848;28;20068;-61
2022/04/29 20:12:38;;;;;;;2.67;1.58;;;12.80;79.70;;;;;;10416703;28;20033;-59
2022/04/29 20:17:39;;;;;;;3.63;2.05;;;12.80;79.80;;;;;;10422814;28;20029;-63
2022/04/29 20:22:43;;;;;;;2.10;1.50;;;12.80;79.80;;;;;;10420838;28;20124;-60
2022/04/29 20:27:45;;;;;;;3.53;1.98;;;12.70;79.80;;;;;;10415062;28;20013;-63
2022/04/29 20:32:46;;;;;;;2.10;1.38;;;12.70;79.80;;;;;;10431212;28;20518;-62
2022/04/29 20:37:47;;;;;;;4.97;2.30;;;12.70;79.80;;;;;;10444856;28;20040;-60
2022/04/29 20:48:08;;;;;;;3.30;1.80;;;12.60;79.80;;;;;;10439246;28;20090;-56
2022/04/29 20:53:08;;;;;;;3.20;1.70;;;12.60;79.80;;;;;;10443256;28;20442;-58
2022/04/29 20:58:09;;;;;;;2.78;1.60;;;12.60;79.80;;;;;;10442386;28;20071;-59
2022/04/29 21:03:10;;;;;;;2.28;1.52;;;12.50;79.70;;;;;;10436291;28;20059;-54
2022/04/29 21:08:11;;;;;;;3.13;1.60;;;12.50;79.70;;;;;;10439440;28;20046;-59
2022/04/29 21:13:12;;;;;;;4.20;1.45;;;12.50;79.70;;;;;;10443897;28;20067;-57
2022/04/29 21:18:17;;;;;;;2.25;1.60;;;12.40;79.70;;;;;;10439046;28;20025;-60
2022/04/29 21:23:18;;;;;;;4.07;2.25;;;12.40;80.30;;;;;;10443639;28;20252;-56
2022/04/29 21:28:19;;;;;;;3.13;1.73;;;12.40;79.70;;;;;;10443322;28;20435;-59
2022/04/29 21:33:20;;;;;;;3.10;1.65;;;12.40;79.70;;;;;;10444563;28;20128;-60
2022/04/29 21:38:21;;;;;;;3.28;2.00;;;12.30;79.60;;;;;;10445229;28;20032;-58
2022/04/29 21:43:22;;;;;;;2.95;1.60;;;12.30;79.60;;;;;;10442913;28;20140;-61
2022/04/29 21:48:23;;;;;;;4.95;1.73;;;12.30;79.60;;;;;;10443917;28;20429;-60
2022/04/29 21:53:23;;;;;;;4.05;1.52;;;12.30;79.60;;;;;;10447226;28;20059;-61
2022/04/29 21:58:25;;;;;;;2.97;1.88;;;12.30;79.60;;;;;;10446582;28;20387;-60
2022/04/29 22:03:26;;;;;;;3.47;1.63;;;12.20;79.50;;;;;;10441655;28;20586;-60
2022/04/29 22:08:26;;;;;;;2.53;1.88;;;12.20;79.50;;;;;;10443575;28;20053;-60
2022/04/29 22:13:27;;;;;;;4.53;1.70;;;12.20;79.50;;;;;;10443518;28;20380;-57
2022/04/29 22:18:29;;;;;;;3.30;1.58;;;12.20;80.10;;;;;;10443765;28;20384;-61
2022/04/29 22:23:30;;;;;;;4.15;1.90;;;12.20;79.50;;;;;;10443444;28;20037;-61
2022/04/29 22:28:30;;;;;;;4.63;1.90;;;12.20;79.40;;;;;;10449673;28;20033;-59
2022/04/29 22:33:31;;;;;;;3.17;1.88;;;12.20;79.50;;;;;;10453759;28;20025;-58
2022/04/29 22:38:32;;;;;;;3.63;1.67;;;12.10;79.40;;;;;;10452397;28;20450;-61
2022/04/29 22:43:33;;;;;;;5.10;2.25;;;12.10;79.40;;;;;;10452068;28;20044;-56
2022/04/29 22:48:34;;;;;;;3.50;1.70;;;12.10;79.40;;;;;;10451611;28;20074;-56
2022/04/29 22:53:35;;;;;;;3.38;1.80;;;12.10;79.50;;;;;;10453309;28;20066;-58
2022/04/29 22:58:37;;;;;;;3.13;1.92;;;12.00;79.40;;;;;;10451541;28;20609;-58
2022/04/29 23:03:37;;;;;;;3.03;1.80;;;12.00;79.40;;;;;;10451269;28;20048;-55
2022/04/29 23:08:39;;;;;;;4.97;2.03;;;12.00;79.50;;;;;;10450256;28;20048;-60
2022/04/29 23:13:39;;;;;;;2.95;1.83;;;12.00;79.50;;;;;;10449826;28;20485;-60
2022/04/29 23:24:00;;;;;;;2.38;1.88;;;11.90;79.50;;;;;;10450209;28;20477;-56
2022/04/29 23:29:01;;;;;;;2.80;2.13;;;11.90;79.50;;;;;;10449782;28;20125;-59
2022/04/29 23:34:05;;;;;;;5.13;2.20;;;11.90;79.50;;;;;;10449914;28;20033;-56
2022/04/29 23:39:05;;;;;;;5.28;2.20;;;11.90;79.60;;;;;;10448832;28;20032;-59
2022/04/29 23:44:07;;;;;;;4.07;2.00;;;11.90;79.60;;;;;;10449694;28;20040;-56
2022/04/29 23:49:08;;;;;;;3.35;2.47;;;11.90;79.60;;;;;;10449390;28;20338;-58
2022/04/29 23:54:09;;;;;;;4.47;2.45;;;11.80;79.60;;;;;;10448698;28;20463;-57
2022/04/29 23:59:10;;;;;;;4.43;2.75;;;11.80;79.50;;;;;;10448622;28;20043;-58
